createdAt,value
2022-12-15T00:02:25.120Z,24.20
2022-12-15T00:05:10.481Z,24.55
2022-12-15T00:07:55.744Z,26.30
2022-12-15T00:10:41.432Z,31.80
2022-12-15T00:13:30.888Z,26.58
2022-12-15T00:16:17.040Z,25.55
2022-12-15T00:19:05.537Z,27.17
2022-12-15T00:21:50.730Z,29.58
2022-12-15T00:24:36.391Z,27.00
2022-12-15T00:27:22.514Z,26.17
2022-12-15T00:30:07.735Z,28.77
2022-12-15T00:32:53.584Z,29.15
2022-12-15T00:35:38.630Z,27.02
2022-12-15T00:38:28.822Z,29.80
2022-12-15T00:40:59.489Z,30.77
2022-12-15T00:43:27.926Z,39.67
2022-12-15T00:46:13.494Z,25.70
2022-12-15T00:48:41.295Z,36.28
2022-12-15T00:51:08.471Z,25.77
2022-12-15T00:53:53.814Z,27.77
2022-12-15T00:56:38.988Z,25.88
2022-12-15T00:59:24.348Z,24.13
2022-12-15T01:10:33.900Z,22.83
2022-12-15T01:13:19.368Z,24.52
2022-12-15T01:16:04.379Z,18.15
2022-12-15T01:18:52.888Z,25.30
2022-12-15T01:21:24.300Z,22.30
2022-12-15T01:23:52.055Z,24.27
2022-12-15T01:26:18.631Z,19.65
2022-12-15T01:28:45.173Z,22.23
2022-12-15T01:31:12.470Z,19.48
2022-12-15T01:33:42.678Z,20.00
2022-12-15T01:36:10.087Z,22.90
2022-12-15T01:38:36.721Z,24.60
2022-12-15T01:41:06.324Z,24.98
2022-12-15T01:43:35.754Z,17.30
2022-12-15T01:46:35.938Z,21.08
2022-12-15T01:49:17.521Z,17.33
2022-12-15T01:51:52.290Z,19.42
2022-12-15T01:54:18.757Z,23.17
2022-12-15T01:56:49.982Z,28.20
2022-12-15T01:59:29.207Z,18.35
2022-12-15T02:01:55.955Z,20.33
2022-12-15T02:04:23.843Z,22.48
2022-12-15T02:06:50.795Z,15.45
2022-12-15T02:09:18.711Z,20.58
2022-12-15T02:12:02.675Z,20.45
2022-12-15T02:14:45.361Z,20.30
2022-12-15T02:17:45.488Z,27.67
2022-12-15T02:20:49.927Z,18.30
2022-12-15T02:23:47.139Z,20.35
2022-12-15T02:26:42.117Z,14.13
2022-12-15T02:29:13.172Z,14.88
2022-12-15T02:32:00.052Z,13.98
2022-12-15T02:34:34.537Z,18.40
2022-12-15T02:37:16.772Z,13.90
2022-12-15T02:39:43.628Z,14.57
2022-12-15T02:42:13.994Z,12.68
2022-12-15T02:45:01.703Z,17.13
2022-12-15T02:47:34.382Z,12.35
2022-12-15T02:50:33.362Z,17.33
2022-12-15T02:53:31.542Z,20.25
2022-12-15T02:56:10.549Z,16.50
2022-12-15T02:58:48.357Z,15.30
2022-12-15T03:01:26.549Z,15.18
2022-12-15T03:03:53.832Z,17.52
2022-12-15T03:06:20.502Z,12.63
2022-12-15T03:08:47.498Z,16.02
2022-12-15T03:11:14.079Z,14.40
2022-12-15T03:13:40.603Z,18.08
2022-12-15T03:16:07.269Z,20.05
2022-12-15T03:18:34.162Z,16.02
2022-12-15T03:21:00.751Z,15.38
2022-12-15T03:23:27.335Z,13.27
2022-12-15T03:25:54.028Z,13.07
2022-12-15T03:28:20.621Z,14.43
2022-12-15T03:30:50.636Z,15.32
2022-12-15T03:33:17.771Z,14.05
2022-12-15T03:35:44.397Z,12.20
2022-12-15T03:38:10.942Z,14.70
2022-12-15T03:40:37.468Z,17.42
2022-12-15T03:43:04.005Z,13.23
2022-12-15T03:45:30.663Z,14.82
2022-12-15T03:47:57.719Z,15.30
2022-12-15T03:50:26.931Z,16.92
2022-12-15T03:52:56.453Z,13.27
2022-12-15T03:55:23.708Z,15.02
2022-12-15T03:57:51.262Z,14.63
2022-12-15T04:00:20.040Z,16.52
2022-12-15T04:02:49.976Z,11.45
2022-12-15T04:05:27.778Z,17.27
2022-12-15T04:07:56.643Z,12.45
2022-12-15T04:10:31.734Z,13.07
2022-12-15T04:13:02.885Z,13.93
2022-12-15T04:15:29.662Z,14.32
2022-12-15T04:17:56.769Z,12.52
2022-12-15T04:20:23.300Z,10.65
2022-12-15T04:22:50.934Z,17.20
2022-12-15T04:25:39.764Z,11.43
2022-12-15T04:28:25.889Z,15.15
2022-12-15T04:31:36.704Z,18.15
2022-12-15T04:34:25.813Z,13.25
2022-12-15T04:37:12.349Z,15.40
2022-12-15T04:40:09.429Z,16.35
2022-12-15T04:42:59.359Z,15.80
2022-12-15T04:45:44.602Z,15.30
2022-12-15T04:48:29.947Z,14.35
2022-12-15T04:51:15.513Z,15.80
2022-12-15T04:54:04.259Z,14.25
2022-12-15T04:56:50.948Z,12.57
2022-12-15T04:59:36.627Z,13.60
2022-12-15T05:02:22.084Z,14.50
2022-12-15T05:05:07.127Z,13.18
2022-12-15T05:07:55.203Z,16.15
2022-12-15T05:10:40.671Z,11.52
2022-12-15T05:13:26.831Z,15.85
2022-12-15T05:16:12.418Z,15.30
2022-12-15T05:18:58.120Z,14.02
2022-12-15T05:21:43.059Z,14.77
2022-12-15T05:24:28.307Z,17.50
2022-12-15T05:27:13.405Z,13.98
2022-12-15T05:29:58.694Z,15.15
2022-12-15T05:32:25.309Z,11.00
2022-12-15T05:34:51.852Z,16.90
2022-12-15T05:37:18.679Z,18.92
2022-12-15T05:39:45.576Z,13.75
2022-12-15T05:42:12.179Z,16.77
2022-12-15T05:44:38.855Z,11.15
2022-12-15T05:47:05.414Z,15.45
2022-12-15T05:49:32.104Z,16.85
2022-12-15T05:51:58.699Z,18.80
2022-12-15T05:54:25.513Z,15.05
2022-12-15T05:56:52.579Z,11.00
2022-12-15T05:59:19.437Z,17.42
2022-12-15T06:01:46.485Z,15.65
2022-12-15T06:04:13.488Z,15.20
2022-12-15T06:06:41.154Z,16.60
2022-12-15T06:09:08.350Z,12.27
2022-12-15T06:11:35.065Z,15.38
2022-12-15T06:14:01.676Z,13.82
2022-12-15T06:16:28.359Z,12.85
2022-12-15T06:18:58.527Z,14.98
2022-12-15T06:21:31.691Z,18.92
2022-12-15T06:23:58.538Z,14.10
2022-12-15T06:26:30.856Z,12.25
2022-12-15T06:28:59.231Z,16.50
2022-12-15T06:31:26.968Z,14.52
2022-12-15T06:34:01.810Z,14.25
2022-12-15T06:36:30.857Z,15.75
2022-12-15T06:39:03.360Z,14.95
2022-12-15T06:41:30.993Z,12.15
2022-12-15T06:43:58.599Z,17.15
2022-12-15T06:46:26.824Z,13.13
2022-12-15T06:48:53.579Z,14.20
2022-12-15T06:51:20.404Z,18.35
2022-12-15T06:53:50.888Z,18.20
2022-12-15T06:56:37.718Z,13.73
2022-12-15T06:59:05.916Z,16.27
2022-12-15T07:01:32.975Z,16.60
2022-12-15T07:04:02.891Z,16.70
2022-12-15T07:06:36.150Z,11.25
2022-12-15T07:09:04.058Z,13.55
2022-12-15T07:11:30.546Z,13.73
2022-12-15T07:13:57.097Z,14.05
2022-12-15T07:16:24.801Z,13.48
2022-12-15T07:18:52.293Z,14.75
2022-12-15T07:21:19.461Z,15.90
2022-12-15T07:23:54.588Z,12.70
2022-12-15T07:26:23.681Z,15.30
2022-12-15T07:28:50.319Z,16.70
2022-12-15T07:31:17.757Z,14.43
2022-12-15T07:33:44.826Z,14.63
2022-12-15T07:36:12.179Z,17.65
2022-12-15T07:38:38.975Z,14.23
2022-12-15T07:41:07.909Z,14.77
2022-12-15T07:43:35.901Z,12.63
2022-12-15T07:46:05.004Z,14.65
2022-12-15T07:48:32.966Z,14.80
2022-12-15T07:51:10.934Z,15.65
2022-12-15T07:53:39.093Z,16.83
2022-12-15T07:56:08.992Z,14.00
2022-12-15T07:58:37.543Z,15.07
2022-12-15T08:01:08.001Z,16.95
2022-12-15T08:03:35.915Z,15.98
2022-12-15T08:06:06.317Z,16.88
2022-12-15T08:08:34.318Z,12.57
2022-12-15T08:11:06.330Z,12.88
2022-12-15T08:16:23.562Z,15.50
2022-12-15T08:18:50.361Z,16.67
2022-12-15T08:21:17.062Z,18.20
2022-12-15T08:23:43.587Z,16.05
2022-12-15T08:26:13.600Z,15.88
2022-12-15T08:28:41.243Z,13.50
2022-12-15T08:31:13.450Z,12.43
2022-12-15T08:33:40.826Z,13.50
2022-12-15T08:36:10.221Z,14.18
2022-12-15T08:38:38.698Z,16.77
2022-12-15T08:41:11.131Z,14.05
2022-12-15T08:43:43.865Z,15.07
2022-12-15T08:46:17.067Z,16.20
2022-12-15T08:48:44.054Z,13.73
2022-12-15T08:51:10.867Z,13.77
2022-12-15T08:53:38.649Z,13.85
2022-12-15T08:56:07.954Z,17.77
2022-12-15T08:58:34.747Z,23.60
2022-12-15T09:01:04.240Z,19.88
2022-12-15T09:03:31.601Z,18.27
2022-12-15T09:06:06.052Z,15.73
2022-12-15T09:08:35.905Z,17.27
2022-12-15T09:11:02.526Z,14.27
2022-12-15T09:13:29.750Z,15.55
2022-12-15T09:16:10.336Z,18.98
2022-12-15T09:18:38.083Z,16.20
2022-12-15T09:21:07.246Z,17.63
2022-12-15T09:23:35.667Z,14.55
2022-12-15T09:26:08.944Z,17.92
2022-12-15T09:28:35.967Z,14.77
2022-12-15T09:31:17.268Z,13.35
2022-12-15T09:33:44.515Z,23.75
2022-12-15T09:36:13.218Z,21.73
2022-12-15T09:38:41.616Z,15.40
2022-12-15T09:41:14.031Z,15.55
2022-12-15T09:43:54.149Z,15.25
2022-12-15T09:46:21.132Z,19.30
2022-12-15T09:48:50.311Z,18.17
2022-12-15T09:51:18.750Z,18.20
2022-12-15T09:53:55.473Z,14.77
2022-12-15T09:56:29.855Z,15.80
2022-12-15T09:59:21.817Z,23.02
2022-12-15T10:02:06.870Z,16.65
2022-12-15T10:05:10.599Z,17.45
2022-12-15T10:07:42.097Z,17.85
2022-12-15T10:10:28.307Z,20.05
2022-12-15T10:13:02.474Z,16.50
2022-12-15T10:15:37.877Z,17.33
2022-12-15T10:18:22.377Z,19.05
2022-12-15T10:20:52.125Z,18.70
2022-12-15T10:23:18.842Z,20.92
2022-12-15T10:26:20.811Z,18.33
2022-12-15T10:29:02.838Z,16.83
2022-12-15T10:31:52.242Z,17.90
2022-12-15T10:34:34.705Z,16.95
2022-12-15T10:37:03.688Z,18.25
2022-12-15T10:39:42.338Z,16.95
2022-12-15T10:42:12.777Z,19.10
2022-12-15T10:44:42.932Z,15.38
2022-12-15T10:47:31.201Z,14.20
2022-12-15T10:50:24.767Z,18.65
2022-12-15T10:52:51.979Z,18.55
2022-12-15T10:55:37.409Z,16.52
2022-12-15T10:58:15.556Z,17.35
2022-12-15T11:00:42.479Z,17.75
2022-12-15T11:03:26.095Z,21.50
2022-12-15T11:05:54.954Z,15.90
2022-12-15T11:08:22.887Z,16.83
2022-12-15T11:11:16.111Z,20.70
2022-12-15T11:14:07.090Z,15.32
2022-12-15T11:16:33.728Z,17.73
2022-12-15T11:19:21.758Z,16.55
2022-12-15T11:21:59.803Z,17.40
2022-12-15T11:24:40.204Z,15.27
2022-12-15T11:27:15.794Z,17.30
2022-12-15T11:30:00.433Z,17.80
2022-12-15T11:32:29.855Z,19.02
2022-12-15T11:34:56.785Z,16.05
2022-12-15T11:37:37.846Z,16.05
2022-12-15T11:40:23.578Z,17.38
2022-12-15T11:42:53.266Z,13.63
2022-12-15T11:45:36.656Z,17.35
2022-12-15T11:48:19.458Z,19.70
2022-12-15T11:51:06.490Z,16.25
2022-12-15T11:54:10.470Z,24.92
2022-12-15T11:56:47.368Z,13.00
2022-12-15T11:59:15.598Z,16.67
2022-12-15T12:02:02.963Z,15.18
2022-12-15T12:04:50.777Z,18.30
2022-12-15T12:07:42.316Z,17.83
2022-12-15T12:10:28.369Z,15.20
2022-12-15T12:13:11.903Z,15.38
2022-12-15T12:16:09.725Z,16.00
2022-12-15T12:18:52.575Z,20.42
2022-12-15T12:21:26.495Z,15.00
2022-12-15T12:24:00.652Z,19.98
2022-12-15T12:26:45.130Z,14.52
2022-12-15T12:29:13.057Z,17.42
2022-12-15T12:35:32.210Z,17.45
2022-12-15T12:38:04.444Z,15.75
2022-12-15T12:40:41.342Z,15.07
2022-12-15T12:43:14.026Z,15.00
2022-12-15T12:45:56.008Z,14.10
2022-12-15T12:48:27.850Z,18.38
2022-12-15T12:51:30.149Z,14.05
2022-12-15T12:53:58.876Z,12.98
2022-12-15T12:56:44.329Z,16.20
2022-12-15T12:59:50.944Z,14.77
2022-12-15T13:02:20.370Z,16.00
2022-12-15T13:04:57.228Z,16.30
2022-12-15T13:07:38.200Z,15.18
2022-12-15T13:10:04.912Z,16.30
2022-12-15T13:12:52.653Z,14.73
2022-12-15T13:15:42.930Z,18.33
2022-12-15T13:18:20.164Z,13.85
2022-12-15T13:23:43.301Z,17.60
2022-12-15T13:26:11.112Z,16.38
2022-12-15T13:28:40.250Z,15.77
2022-12-15T13:31:25.164Z,14.35
2022-12-15T13:33:54.767Z,14.10
2022-12-15T13:36:39.734Z,16.65
2022-12-15T13:39:12.489Z,12.15
2022-12-15T13:44:45.452Z,14.60
2022-12-15T13:47:14.425Z,15.27
2022-12-15T13:50:01.796Z,19.25
2022-12-15T13:55:28.128Z,12.77
2022-12-15T13:58:00.151Z,13.45
2022-12-15T14:00:27.080Z,14.18
2022-12-15T14:03:07.173Z,16.70
2022-12-15T14:05:33.805Z,14.40
2022-12-15T14:08:03.526Z,13.90
2022-12-15T14:10:32.861Z,17.48
2022-12-15T14:15:59.101Z,14.63
2022-12-15T14:18:27.380Z,13.55
2022-12-15T14:20:54.678Z,16.20
2022-12-15T14:23:26.473Z,16.23
2022-12-15T14:25:54.844Z,14.65
2022-12-15T14:28:27.291Z,17.45
2022-12-15T14:30:57.120Z,15.07
2022-12-15T14:33:28.205Z,13.40
2022-12-15T14:35:58.661Z,12.95
2022-12-15T14:38:40.023Z,13.05
2022-12-15T14:41:11.138Z,14.77
2022-12-15T14:43:39.782Z,16.30
2022-12-15T14:46:09.482Z,16.63
2022-12-15T14:48:41.788Z,16.65
2022-12-15T14:51:12.689Z,12.60
2022-12-15T14:53:42.152Z,12.82
2022-12-15T14:56:29.730Z,14.02
2022-12-15T14:59:04.303Z,14.05
2022-12-15T15:01:41.767Z,14.80
2022-12-15T15:03:10.166Z,17.00
2022-12-15T15:03:12.732Z,13.30
2022-12-15T15:03:13.043Z,12.27
2022-12-15T15:03:13.114Z,18.63
2022-12-15T15:03:14.222Z,11.73
2022-12-15T15:04:34.586Z,12.88
2022-12-15T15:07:04.776Z,16.65
2022-12-15T15:09:41.249Z,18.45
2022-12-15T15:12:14.513Z,23.92
2022-12-15T15:14:51.557Z,18.65
2022-12-15T15:17:31.151Z,15.65
2022-12-15T15:20:02.007Z,17.05
2022-12-15T15:22:39.901Z,17.50
2022-12-15T15:25:22.510Z,15.23
2022-12-15T15:27:49.623Z,17.20
2022-12-15T15:30:16.674Z,17.98
2022-12-15T15:32:57.493Z,19.63
2022-12-15T15:35:30.401Z,16.48
2022-12-15T15:38:12.130Z,19.85
2022-12-15T15:40:38.768Z,17.92
2022-12-15T15:43:12.644Z,14.50
2022-12-15T15:45:41.726Z,20.13
2022-12-15T15:48:14.902Z,15.20
2022-12-15T15:50:41.715Z,19.65
2022-12-15T15:53:15.313Z,17.38
2022-12-15T15:55:43.355Z,21.55
2022-12-15T15:58:13.189Z,18.35
2022-12-15T16:00:40.410Z,18.17
2022-12-15T16:03:07.634Z,15.70
2022-12-15T16:05:35.394Z,16.60
2022-12-15T16:08:03.732Z,16.75
2022-12-15T16:10:30.672Z,23.00
2022-12-15T16:13:01.154Z,17.45
2022-12-15T16:15:31.689Z,15.77
2022-12-15T16:17:59.195Z,19.00
2022-12-15T16:20:29.103Z,15.55
2022-12-15T16:23:15.879Z,18.40
2022-12-15T16:25:50.592Z,18.20
2022-12-15T16:28:20.444Z,19.13
2022-12-15T16:30:47.572Z,19.52
2022-12-15T16:33:14.778Z,22.08
2022-12-15T16:35:42.631Z,18.27
2022-12-15T16:38:15.811Z,40.08
2022-12-15T16:40:42.419Z,37.90
2022-12-15T16:43:22.021Z,24.17
2022-12-15T16:45:51.094Z,23.02
2022-12-15T16:48:18.479Z,25.70
2022-12-15T16:50:58.184Z,20.75
2022-12-15T16:53:27.606Z,19.17
2022-12-15T16:55:56.556Z,25.20
2022-12-15T16:58:25.314Z,18.70
2022-12-15T17:00:53.738Z,25.38
2022-12-15T17:03:26.176Z,17.67
2022-12-15T17:05:58.884Z,19.60
2022-12-15T17:08:33.190Z,22.25
2022-12-15T17:11:00.285Z,26.40
2022-12-15T17:13:39.217Z,20.48
2022-12-15T17:16:14.375Z,20.27
2022-12-15T17:18:42.796Z,22.17
2022-12-15T17:21:16.895Z,18.08
2022-12-15T17:23:45.886Z,20.30
2022-12-15T17:26:29.203Z,23.50
2022-12-15T17:28:59.745Z,23.05
2022-12-15T17:31:32.918Z,18.85
2022-12-15T17:34:02.716Z,18.52
2022-12-15T17:36:29.395Z,20.08
2022-12-15T17:39:00.786Z,23.02
2022-12-15T17:41:58.033Z,19.63
2022-12-15T17:44:33.064Z,18.40
2022-12-15T17:47:02.347Z,18.13
2022-12-15T17:49:35.030Z,21.92
2022-12-15T17:52:16.780Z,18.73
2022-12-15T17:54:43.453Z,16.75
2022-12-15T17:57:13.732Z,16.08
2022-12-15T17:59:40.444Z,17.60
2022-12-15T18:02:15.620Z,20.40
2022-12-15T18:04:43.843Z,15.68
2022-12-15T18:07:20.269Z,15.55
2022-12-15T18:09:47.861Z,18.77
2022-12-15T18:12:26.031Z,15.30
2022-12-15T18:14:53.261Z,19.35
2022-12-15T18:17:20.387Z,18.67
2022-12-15T18:19:47.545Z,21.98
2022-12-15T18:22:17.873Z,48.67
2022-12-15T18:24:44.729Z,29.63
2022-12-15T18:27:21.758Z,22.05
2022-12-15T18:29:49.374Z,17.80
2022-12-15T18:32:17.052Z,17.08
2022-12-15T18:34:43.832Z,16.77
2022-12-15T18:37:18.711Z,18.60
2022-12-15T18:39:46.274Z,20.10
2022-12-15T18:42:17.980Z,25.70
2022-12-15T18:44:52.298Z,19.45
2022-12-15T18:47:21.824Z,22.17
2022-12-15T18:49:49.233Z,19.58
2022-12-15T18:52:21.593Z,19.85
2022-12-15T18:54:50.417Z,20.80
2022-12-15T18:57:28.452Z,20.48
2022-12-15T19:00:07.962Z,19.38
2022-12-15T19:02:34.630Z,18.38
2022-12-15T19:05:01.388Z,20.73
2022-12-15T19:07:27.961Z,22.10
2022-12-15T19:09:54.898Z,19.55
2022-12-15T19:12:21.762Z,19.40
2022-12-15T19:14:50.868Z,18.55
2022-12-15T19:17:39.633Z,19.95
2022-12-15T19:20:35.141Z,25.25
2022-12-15T19:23:01.964Z,18.13
2022-12-15T19:25:29.579Z,21.50
2022-12-15T19:28:01.348Z,22.73
2022-12-15T19:30:35.884Z,19.65
2022-12-15T19:33:07.438Z,19.58
2022-12-15T19:35:34.250Z,21.45
2022-12-15T19:38:03.456Z,25.45
2022-12-15T19:40:32.897Z,21.52
2022-12-15T19:43:00.848Z,16.13
2022-12-15T19:45:30.067Z,17.65
2022-12-15T19:47:57.288Z,16.95
2022-12-15T19:50:37.106Z,20.30
2022-12-15T19:53:11.620Z,23.38
2022-12-15T19:55:38.691Z,18.95
2022-12-15T19:58:33.078Z,20.80
2022-12-15T20:01:10.048Z,24.50
2022-12-15T20:03:37.411Z,18.13
2022-12-15T20:06:11.944Z,19.48
2022-12-15T20:08:41.924Z,18.55
2022-12-15T20:11:27.761Z,21.67
2022-12-15T20:13:56.098Z,21.23
2022-12-15T20:16:24.075Z,19.63
2022-12-15T20:18:53.411Z,19.98
2022-12-15T20:21:23.258Z,22.60
2022-12-15T20:24:00.587Z,18.15
2022-12-15T20:26:29.448Z,20.08
2022-12-15T20:28:56.816Z,18.98
2022-12-15T20:31:25.214Z,21.25
2022-12-15T20:33:52.511Z,18.45
2022-12-15T20:36:22.198Z,22.70
2022-12-15T20:38:49.001Z,19.77
2022-12-15T20:41:22.003Z,19.20
2022-12-15T20:43:49.470Z,18.65
2022-12-15T20:46:21.154Z,21.50
2022-12-15T20:48:49.344Z,22.35
2022-12-15T20:51:22.010Z,28.00
2022-12-15T20:53:49.600Z,20.85
2022-12-15T20:56:17.574Z,30.90
2022-12-15T20:58:46.101Z,20.50
2022-12-15T21:01:18.926Z,21.27
2022-12-15T21:03:46.861Z,23.17
2022-12-15T21:06:13.628Z,22.90
2022-12-15T21:08:40.656Z,24.73
2022-12-15T21:11:15.218Z,22.20
2022-12-15T21:13:42.890Z,22.15
2022-12-15T21:16:15.885Z,25.67
2022-12-15T21:19:19.211Z,19.92
2022-12-15T21:21:35.259Z,22.98
2022-12-15T21:24:12.954Z,22.27
2022-12-15T21:26:39.609Z,24.55
2022-12-15T21:29:12.832Z,21.45
2022-12-15T21:31:39.388Z,20.00
2022-12-15T21:34:09.440Z,24.20
2022-12-15T21:36:37.596Z,21.13
2022-12-15T21:39:06.884Z,23.35
2022-12-15T21:41:34.304Z,23.70
2022-12-15T21:44:01.001Z,20.63
2022-12-15T21:46:31.135Z,21.50
2022-12-15T21:49:18.016Z,19.48
2022-12-15T21:51:44.905Z,22.92
2022-12-15T21:54:30.456Z,24.40
2022-12-15T21:56:58.824Z,27.65
2022-12-15T21:59:27.875Z,30.15
2022-12-15T22:01:56.001Z,39.05
2022-12-15T22:04:32.168Z,32.38
2022-12-15T22:06:58.916Z,22.55
2022-12-15T22:09:25.632Z,35.60
2022-12-15T22:11:54.046Z,28.05
2022-12-15T22:14:29.655Z,29.02
2022-12-15T22:16:57.801Z,28.25
2022-12-15T22:19:27.021Z,28.20
2022-12-15T22:21:54.112Z,25.33
2022-12-15T22:24:21.819Z,24.40
2022-12-15T22:26:48.579Z,25.80
2022-12-15T22:29:21.697Z,21.33
2022-12-15T22:31:52.845Z,23.05
2022-12-15T22:34:25.489Z,27.08
2022-12-15T22:36:52.257Z,22.35
2022-12-15T22:39:22.335Z,24.25
2022-12-15T22:41:51.685Z,24.67
2022-12-15T22:44:26.875Z,27.00
2022-12-15T22:46:56.545Z,23.38
2022-12-15T22:49:28.791Z,24.02
2022-12-15T22:51:55.493Z,22.42
2022-12-15T22:54:24.464Z,25.33
2022-12-15T22:56:58.471Z,30.40
2022-12-15T22:59:29.463Z,22.45
2022-12-15T23:01:56.438Z,19.98
2022-12-15T23:04:24.042Z,22.35
2022-12-15T23:06:50.677Z,24.25
2022-12-15T23:09:18.611Z,23.98
2022-12-15T23:11:45.158Z,19.98
2022-12-15T23:14:14.752Z,24.95
2022-12-15T23:16:43.458Z,22.02
2022-12-15T23:19:23.486Z,22.73
2022-12-15T23:21:51.526Z,19.67
2022-12-15T23:24:20.510Z,21.77
2022-12-15T23:26:47.009Z,22.25
2022-12-15T23:29:16.761Z,21.42
2022-12-15T23:31:43.474Z,23.02
2022-12-15T23:34:12.762Z,24.08
2022-12-15T23:36:39.475Z,23.45
2022-12-15T23:39:06.151Z,20.35
2022-12-15T23:41:33.033Z,22.20
2022-12-15T23:43:59.831Z,16.10
2022-12-15T23:46:26.330Z,23.48
2022-12-15T23:48:52.858Z,23.13
2022-12-15T23:51:21.609Z,20.17
2022-12-15T23:53:48.236Z,19.73
2022-12-15T23:56:20.385Z,18.73
2022-12-15T23:58:49.555Z,16.02
